Time,TemperatureF,DewpointF,PressureIn,WindDirection,WindDirectionDegrees,WindSpeedMPH,WindSpeedGustMPH,Humidity,HourlyPrecipIn,Conditions,Clouds,dailyrainin,SoftwareType,DateUTC
2013-02-05 00:01:00,10.6,10.6,28.82,South,176,2.0,5.0,100,0.00,,CLR,0.00,VWS V14.01,2013-02-05 06:01:00,
2013-02-05 00:05:00,10.6,10.6,28.82,South,171,4.0,7.0,100,0.00,,CLR,0.00,VWS V14.01,2013-02-05 06:05:00,
2013-02-05 00:10:00,10.5,10.5,28.82,South,169,4.0,5.0,100,0.00,,CLR,0.00,VWS V14.01,2013-02-05 06:10:00,
2013-02-05 00:15:00,10.4,10.4,28.82,South,177,8.0,9.0,100,0.00,,CLR,0.00,VWS V14.01,2013-02-05 06:15:00,
2013-02-05 00:20:00,10.3,10.3,28.81,South,174,4.0,8.0,100,0.00,,CLR,0.00,VWS V14.01,2013-02-05 06:20:00,
2013-02-05 00:25:00,10.2,10.2,28.81,South,171,9.0,9.0,100,0.00,,CLR,0.00,VWS V14.01,2013-02-05 06:25:00,
2013-02-05 00:30:00,10.1,10.1,28.81,South,169,2.0,8.0,100,0.00,,CLR,0.00,VWS V14.01,2013-02-05 06:30:00,
2013-02-05 00:35:00,10.0,10.0,28.80,SSE,159,6.0,9.0,100,0.00,,CLR,0.00,VWS V14.01,2013-02-05 06:35:00,
2013-02-05 00:40:00,10.0,10.0,28.80,South,176,3.0,6.0,100,0.00,,CLR,0.00,VWS V14.01,2013-02-05 06:40:00,
2013-02-05 00:45:00,9.8,9.8,28.80,South,175,4.0,8.0,100,0.00,,CLR,0.00,VWS V14.01,2013-02-05 06:45:00,
2013-02-05 00:50:00,9.7,9.7,28.80,South,174,6.0,7.0,100,0.00,,CLR,0.00,VWS V14.01,2013-02-05 06:50:00,
2013-02-05 00:55:00,9.6,9.6,28.80,South,169,4.0,8.0,100,0.00,,CLR,0.00,VWS V14.01,2013-02-05 06:55:00,
2013-02-05 01:00:00,9.6,9.6,28.80,South,174,1.0,4.0,100,0.00,,CLR,0.00,VWS V14.01,2013-02-05 07:00:00,
2013-02-05 01:05:00,9.4,9.4,28.80,SSE,167,1.0,5.0,100,0.00,,CLR,0.00,VWS V14.01,2013-02-05 07:05:00,
2013-02-05 01:10:00,9.3,9.3,28.81,South,184,1.0,3.0,100,0.00,,CLR,0.00,VWS V14.01,2013-02-05 07:10:00,
2013-02-05 01:15:00,9.2,9.2,28.80,South,184,0.0,3.0,100,0.00,,CLR,0.00,VWS V14.01,2013-02-05 07:15:00,
2013-02-05 01:20:00,9.0,9.0,28.80,South,170,2.0,3.0,100,0.00,,CLR,0.00,VWS V14.01,2013-02-05 07:20:00,
2013-02-05 01:25:00,8.9,8.9,28.80,South,175,2.0,5.0,100,0.00,,CLR,0.00,VWS V14.01,2013-02-05 07:25:00,
2013-02-05 01:30:00,8.8,8.8,28.80,South,171,4.0,4.0,100,0.00,,CLR,0.00,VWS V14.01,2013-02-05 07:30:00,
2013-02-05 01:35:00,8.8,8.8,28.79,South,174,2.0,5.0,100,0.00,,CLR,0.00,VWS V14.01,2013-02-05 07:35:00,
2013-02-05 01:40:00,8.6,8.6,28.79,South,174,1.0,3.0,100,0.00,,CLR,0.00,VWS V14.01,2013-02-05 07:40:00,
2013-02-05 01:45:00,8.5,8.5,28.79,South,174,2.0,3.0,100,0.00,,CLR,0.00,VWS V14.01,2013-02-05 07:45:00,
2013-02-05 01:50:00,8.6,8.6,28.78,SSE,147,1.0,3.0,100,0.00,,CLR,0.00,VWS V14.01,2013-02-05 07:50:00,
2013-02-05 01:55:00,8.7,8.7,28.78,South,190,1.0,5.0,100,0.00,,CLR,0.00,VWS V14.01,2013-02-05 07:55:00,
2013-02-05 02:00:00,8.7,8.7,28.78,SSE,161,1.0,4.0,100,0.00,,CLR,0.00,VWS V14.01,2013-02-05 08:00:00,
2013-02-05 02:05:00,8.7,8.7,28.78,South,171,2.0,4.0,100,0.00,,CLR,0.00,VWS V14.01,2013-02-05 08:05:00,
2013-02-05 02:10:00,8.7,8.7,28.78,South,169,0.0,4.0,100,0.00,,CLR,0.00,VWS V14.01,2013-02-05 08:10:00,
2013-02-05 02:15:00,8.7,8.7,28.78,SSE,167,4.0,6.0,100,0.00,,CLR,0.00,VWS V14.01,2013-02-05 08:15:00,
2013-02-05 02:20:00,8.8,8.8,28.78,South,172,2.0,5.0,100,0.00,,CLR,0.00,VWS V14.01,2013-02-05 08:20:00,
2013-02-05 02:25:00,8.9,8.9,28.78,South,171,3.0,5.0,100,0.00,,CLR,0.00,VWS V14.01,2013-02-05 08:25:00,
2013-02-05 02:30:00,9.3,9.3,28.78,South,180,4.0,6.0,100,0.00,,CLR,0.00,VWS V14.01,2013-02-05 08:30:00,
2013-02-05 02:35:00,9.6,9.6,28.78,SSE,165,3.0,7.0,100,0.00,,CLR,0.00,VWS V14.01,2013-02-05 08:35:00,
2013-02-05 02:40:00,9.9,9.9,28.78,SSE,158,5.0,5.0,100,0.00,,CLR,0.00,VWS V14.01,2013-02-05 08:40:00,
2013-02-05 02:45:00,10.1,10.1,28.78,SSE,157,6.0,7.0,100,0.00,,CLR,0.00,VWS V14.01,2013-02-05 08:45:00,
2013-02-05 02:50:00,10.3,10.3,28.78,South,169,5.0,6.0,100,0.00,,CLR,0.00,VWS V14.01,2013-02-05 08:50:00,
2013-02-05 02:55:00,10.5,10.5,28.78,South,176,7.0,9.0,100,0.00,,CLR,0.00,VWS V14.01,2013-02-05 08:55:00,
2013-02-05 03:00:00,10.7,10.7,28.78,South,180,1.0,3.0,100,0.00,,CLR,0.00,VWS V14.01,2013-02-05 09:00:00,
2013-02-05 03:05:00,10.8,10.8,28.77,South,177,2.0,6.0,100,0.00,,CLR,0.00,VWS V14.01,2013-02-05 09:05:00,
2013-02-05 03:10:00,11.0,11.0,28.77,South,171,4.0,4.0,100,0.00,,CLR,0.00,VWS V14.01,2013-02-05 09:10:00,
2013-02-05 03:15:00,11.1,11.1,28.76,SSE,151,2.0,5.0,100,0.00,,CLR,0.00,VWS V14.01,2013-02-05 09:15:00,
2013-02-05 03:20:00,11.2,11.2,28.76,South,185,0.0,3.0,100,0.00,,CLR,0.00,VWS V14.01,2013-02-05 09:20:00,
2013-02-05 03:25:00,11.3,11.3,28.76,SSE,151,0.0,7.0,100,0.00,,CLR,0.00,VWS V14.01,2013-02-05 09:25:00,
2013-02-05 03:30:00,11.4,11.4,28.76,SSE,152,1.0,5.0,100,0.00,,CLR,0.00,VWS V14.01,2013-02-05 09:30:00,
2013-02-05 03:35:00,11.5,11.5,28.76,SE,143,2.0,7.0,100,0.00,,FEW120,0.00,VWS V14.01,2013-02-05 09:35:00,
2013-02-05 03:40:00,11.6,11.6,28.75,South,170,5.0,6.0,100,0.00,,FEW120,0.00,VWS V14.01,2013-02-05 09:40:00,
2013-02-05 03:45:00,11.6,11.6,28.74,SSE,160,3.0,11.0,100,0.00,,FEW120,0.00,VWS V14.01,2013-02-05 09:45:00,
2013-02-05 03:50:00,11.7,11.7,28.75,SSE,162,2.0,4.0,100,0.00,,FEW120,0.00,VWS V14.01,2013-02-05 09:50:00,
2013-02-05 03:55:00,11.7,11.7,28.74,SSE,162,5.0,7.0,100,0.00,,FEW120,0.00,VWS V14.01,2013-02-05 09:55:00,
2013-02-05 04:00:00,11.7,11.7,28.74,SSE,168,3.0,5.0,100,0.00,,FEW120,0.00,VWS V14.01,2013-02-05 10:00:00,
2013-02-05 04:05:00,11.7,11.7,28.74,South,178,2.0,7.0,100,0.00,,FEW120,0.00,VWS V14.01,2013-02-05 10:05:00,
2013-02-05 04:10:00,11.8,11.8,28.74,SE,146,4.0,6.0,100,0.00,,FEW120,0.00,VWS V14.01,2013-02-05 10:10:00,
2013-02-05 04:15:00,11.8,11.8,28.74,South,187,3.0,7.0,100,0.00,,FEW120,0.00,VWS V14.01,2013-02-05 10:15:00,
2013-02-05 04:20:00,11.9,11.9,28.74,SSE,163,6.0,6.0,100,0.00,,FEW120,0.00,VWS V14.01,2013-02-05 10:20:00,
2013-02-05 04:25:00,11.8,11.8,28.73,SE,126,2.0,8.0,100,0.00,,FEW120,0.00,VWS V14.01,2013-02-05 10:25:00,
2013-02-05 04:30:00,11.8,11.8,28.73,SSE,158,2.0,5.0,100,0.00,,FEW120,0.00,VWS V14.01,2013-02-05 10:30:00,
2013-02-05 04:35:00,11.8,11.8,28.73,South,176,4.0,12.0,100,0.00,,OVC090,0.00,VWS V14.01,2013-02-05 10:35:00,
2013-02-05 04:40:00,11.8,11.8,28.73,South,189,5.0,10.0,100,0.00,,OVC090,0.00,VWS V14.01,2013-02-05 10:40:00,
2013-02-05 04:45:00,11.8,11.8,28.72,SSE,160,8.0,10.0,100,0.00,,OVC090,0.00,VWS V14.01,2013-02-05 10:45:00,
2013-02-05 04:50:00,11.8,11.8,28.72,South,178,4.0,7.0,100,0.00,,OVC090,0.00,VWS V14.01,2013-02-05 10:50:00,
2013-02-05 04:55:00,11.8,11.8,28.72,SSE,165,4.0,10.0,100,0.00,,OVC090,0.00,VWS V14.01,2013-02-05 10:55:00,
2013-02-05 05:00:00,11.9,11.9,28.73,South,180,2.0,5.0,100,0.00,,OVC090,0.00,VWS V14.01,2013-02-05 11:00:00,
2013-02-05 05:05:00,12.0,12.0,28.73,South,171,6.0,7.0,100,0.00,,OVC090,0.00,VWS V14.01,2013-02-05 11:05:00,
2013-02-05 05:10:00,12.1,12.1,28.72,SSE,168,6.0,6.0,100,0.00,,OVC090,0.00,VWS V14.01,2013-02-05 11:10:00,
2013-02-05 05:15:00,12.2,12.2,28.72,South,173,7.0,8.0,100,0.00,,OVC090,0.00,VWS V14.01,2013-02-05 11:15:00,
2013-02-05 05:20:00,12.4,12.4,28.72,SE,125,2.0,3.0,100,0.00,,OVC090,0.00,VWS V14.01,2013-02-05 11:20:00,
2013-02-05 05:25:00,12.7,12.7,28.71,South,182,3.0,12.0,100,0.00,,OVC090,0.00,VWS V14.01,2013-02-05 11:25:00,
2013-02-05 05:30:00,12.8,12.8,28.70,South,173,5.0,11.0,100,0.00,,OVC090,0.00,VWS V14.01,2013-02-05 11:30:00,
2013-02-05 05:35:00,13.1,13.1,28.70,SSE,157,6.0,16.0,100,0.00,,,0.00,VWS V14.01,2013-02-05 11:35:00,
2013-02-05 05:40:00,13.2,13.2,28.69,SSE,149,5.0,6.0,100,0.00,,,0.00,VWS V14.01,2013-02-05 11:40:00,
2013-02-05 05:45:00,13.3,13.3,28.69,South,175,7.0,15.0,100,0.00,,,0.00,VWS V14.01,2013-02-05 11:45:00,
2013-02-05 05:50:00,13.3,13.3,28.68,SSE,165,6.0,6.0,100,0.00,,,0.00,VWS V14.01,2013-02-05 11:50:00,
2013-02-05 05:55:00,13.3,13.3,28.70,SSE,165,5.0,13.0,100,0.00,,,0.00,VWS V14.01,2013-02-05 11:55:00,
2013-02-05 06:00:00,13.4,13.4,28.70,South,184,1.0,10.0,100,0.00,,,0.00,VWS V14.01,2013-02-05 12:00:00,
2013-02-05 06:05:00,13.4,13.4,28.69,SSE,159,5.0,15.0,100,0.00,,,0.00,VWS V14.01,2013-02-05 12:05:00,
2013-02-05 06:10:00,13.4,13.4,28.69,South,175,5.0,5.0,100,0.00,,,0.00,VWS V14.01,2013-02-05 12:10:00,
2013-02-05 06:15:00,13.5,13.5,28.69,ESE,116,7.0,14.0,100,0.00,,,0.00,VWS V14.01,2013-02-05 12:15:00,
2013-02-05 06:20:00,13.6,13.6,28.69,SSE,160,5.0,5.0,100,0.00,,,0.00,VWS V14.01,2013-02-05 12:20:00,
2013-02-05 06:25:00,13.6,13.6,28.69,SSW,196,7.0,16.0,100,0.00,,,0.00,VWS V14.01,2013-02-05 12:25:00,
2013-02-05 06:30:00,13.7,13.7,28.70,SSE,163,4.0,5.0,100,0.00,,,0.00,VWS V14.01,2013-02-05 12:30:00,
2013-02-05 06:35:00,13.8,13.8,28.70,South,186,2.0,8.0,100,0.00,,,0.00,VWS V14.01,2013-02-05 12:35:00,
2013-02-05 06:40:00,13.9,13.9,28.70,South,177,5.0,6.0,100,0.00,,,0.00,VWS V14.01,2013-02-05 12:40:00,
2013-02-05 06:45:00,14.0,14.0,28.70,SSW,204,6.0,9.0,100,0.00,,,0.00,VWS V14.01,2013-02-05 12:45:00,
2013-02-05 06:50:00,14.2,14.2,28.70,South,186,5.0,5.0,100,0.00,,,0.00,VWS V14.01,2013-02-05 12:50:00,
2013-02-05 06:55:00,14.4,14.4,28.70,South,186,6.0,11.0,100,0.00,,,0.00,VWS V14.01,2013-02-05 12:55:00,
2013-02-05 07:00:00,14.6,14.6,28.70,South,186,9.0,9.0,100,0.00,,,0.00,VWS V14.01,2013-02-05 13:00:00,
2013-02-05 07:05:00,14.7,14.7,28.70,SSW,208,6.0,15.0,100,0.00,,,0.00,VWS V14.01,2013-02-05 13:05:00,
2013-02-05 07:10:00,14.9,14.9,28.69,South,190,7.0,10.0,100,0.00,,,0.00,VWS V14.01,2013-02-05 13:10:00,
2013-02-05 07:15:00,15.0,15.0,28.69,SSW,196,8.0,14.0,100,0.00,,,0.00,VWS V14.01,2013-02-05 13:15:00,
2013-02-05 07:20:00,15.2,15.2,28.68,South,175,5.0,9.0,100,0.00,,,0.00,VWS V14.01,2013-02-05 13:20:00,
2013-02-05 07:25:00,15.4,15.4,28.68,SSE,155,1.0,15.0,100,0.00,,,0.00,VWS V14.01,2013-02-05 13:25:00,
2013-02-05 07:30:00,15.6,15.6,28.68,SSW,200,7.0,13.0,100,0.00,,,0.00,VWS V14.01,2013-02-05 13:30:00,
2013-02-05 07:35:00,15.7,15.7,28.68,SSW,212,9.0,17.0,100,0.00,,OVC085,0.00,VWS V14.01,2013-02-05 13:35:00,
2013-02-05 07:40:00,15.9,15.9,28.68,South,169,12.0,12.0,100,0.00,,OVC085,0.00,VWS V14.01,2013-02-05 13:40:00,
2013-02-05 07:45:00,15.9,15.9,28.68,South,170,6.0,21.0,100,0.00,,OVC085,0.00,VWS V14.01,2013-02-05 13:45:00,
2013-02-05 07:50:00,16.0,16.0,28.67,South,171,8.0,16.0,100,0.00,,OVC085,0.00,VWS V14.01,2013-02-05 13:50:00,
2013-02-05 07:55:00,16.3,16.3,28.67,South,191,4.0,16.0,100,0.00,,OVC085,0.00,VWS V14.01,2013-02-05 13:55:00,
2013-02-05 08:00:00,16.5,16.5,28.68,SSE,157,5.0,15.0,100,0.00,,OVC085,0.00,VWS V14.01,2013-02-05 14:00:00,
2013-02-05 08:05:00,16.7,16.7,28.68,SSW,199,5.0,21.0,100,0.00,,OVC085,0.00,VWS V14.01,2013-02-05 14:05:00,
2013-02-05 08:10:00,17.0,17.0,28.69,SSW,201,6.0,7.0,100,0.00,,OVC085,0.00,VWS V14.01,2013-02-05 14:10:00,
2013-02-05 08:15:00,17.1,17.1,28.69,SSW,194,6.0,24.0,100,0.00,,OVC085,0.00,VWS V14.01,2013-02-05 14:15:00,
2013-02-05 08:20:00,17.2,17.2,28.69,South,185,5.0,5.0,100,0.00,,OVC085,0.00,VWS V14.01,2013-02-05 14:20:00,
2013-02-05 08:25:00,17.3,17.3,28.69,SSE,167,6.0,11.0,100,0.00,,OVC085,0.00,VWS V14.01,2013-02-05 14:25:00,
2013-02-05 08:30:00,17.4,17.4,28.68,South,184,6.0,9.0,100,0.00,,OVC085,0.00,VWS V14.01,2013-02-05 14:30:00,
2013-02-05 08:35:00,17.5,17.5,28.69,South,186,4.0,12.0,100,0.00,,OVC033,0.00,VWS V14.01,2013-02-05 14:35:00,
2013-02-05 08:40:00,17.6,17.6,28.68,South,188,4.0,5.0,100,0.00,,OVC033,0.00,VWS V14.01,2013-02-05 14:40:00,
2013-02-05 08:45:00,17.8,17.8,28.68,SSE,168,5.0,9.0,100,0.00,,OVC033,0.00,VWS V14.01,2013-02-05 14:45:00,
2013-02-05 08:50:00,17.9,17.9,28.68,South,175,3.0,4.0,100,0.00,,OVC033,0.00,VWS V14.01,2013-02-05 14:50:00,
2013-02-05 08:55:00,18.0,18.0,28.68,SSW,207,2.0,13.0,100,0.00,,OVC033,0.00,VWS V14.01,2013-02-05 14:55:00,
2013-02-05 09:00:00,18.0,18.0,28.68,SSE,163,2.0,4.0,100,0.00,,OVC033,0.00,VWS V14.01,2013-02-05 15:00:00,
2013-02-05 09:05:00,18.1,18.1,28.68,South,186,4.0,13.0,100,0.00,,OVC033,0.00,VWS V14.01,2013-02-05 15:05:00,
2013-02-05 09:10:00,18.1,18.1,28.68,South,188,4.0,6.0,100,0.00,,OVC033,0.00,VWS V14.01,2013-02-05 15:10:00,
2013-02-05 09:15:00,18.1,18.1,28.68,South,175,3.0,11.0,100,0.00,,OVC033,0.00,VWS V14.01,2013-02-05 15:15:00,
2013-02-05 09:20:00,18.3,18.3,28.68,South,186,3.0,4.0,100,0.00,,OVC033,0.00,VWS V14.01,2013-02-05 15:20:00,
2013-02-05 09:25:00,18.6,18.6,28.68,South,191,3.0,10.0,100,0.00,,OVC033,0.00,VWS V14.01,2013-02-05 15:25:00,
2013-02-05 09:30:00,18.7,18.7,28.68,SSW,195,5.0,7.0,100,0.00,,OVC033,0.00,VWS V14.01,2013-02-05 15:30:00,
2013-02-05 09:35:00,18.8,18.8,28.68,SSW,212,5.0,11.0,100,0.00,,OVC013,0.00,VWS V14.01,2013-02-05 15:35:00,
2013-02-05 09:40:00,19.2,19.2,28.68,SSW,200,3.0,4.0,100,0.00,,OVC013,0.00,VWS V14.01,2013-02-05 15:40:00,
2013-02-05 09:45:00,19.6,19.6,28.68,South,174,6.0,10.0,100,0.00,,OVC013,0.00,VWS V14.01,2013-02-05 15:45:00,
2013-02-05 09:50:00,20.0,20.0,28.67,SSW,195,6.0,6.0,100,0.00,,OVC013,0.00,VWS V14.01,2013-02-05 15:50:00,
2013-02-05 09:55:00,20.4,20.4,28.67,SSW,194,5.0,9.0,100,0.00,,,0.00,VWS V14.01,2013-02-05 15:55:00,
2013-02-05 10:00:00,20.6,20.6,28.67,SSW,200,4.0,4.0,100,0.00,,,0.00,VWS V14.01,2013-02-05 16:00:00,
2013-02-05 10:05:00,20.7,20.7,28.67,South,184,6.0,11.0,100,0.00,,,0.00,VWS V14.01,2013-02-05 16:05:00,
2013-02-05 10:10:00,20.7,20.7,28.67,SSW,200,5.0,7.0,100,0.00,,,0.00,VWS V14.01,2013-02-05 16:10:00,
2013-02-05 10:15:00,20.7,20.7,28.67,SSW,195,4.0,9.0,100,0.00,,,0.00,VWS V14.01,2013-02-05 16:15:00,
2013-02-05 10:20:00,20.7,20.7,28.68,SSW,212,9.0,9.0,100,0.00,,,0.00,VWS V14.01,2013-02-05 16:20:00,
2013-02-05 10:25:00,20.9,20.9,28.68,SSW,212,6.0,9.0,100,0.00,,,0.00,VWS V14.01,2013-02-05 16:25:00,
2013-02-05 10:30:00,20.9,20.9,28.68,SSW,211,8.0,8.0,100,0.00,,,0.00,VWS V14.01,2013-02-05 16:30:00,
2013-02-05 10:35:00,21.0,21.0,28.69,SSW,210,4.0,13.0,100,0.00,,,0.00,VWS V14.01,2013-02-05 16:35:00,
2013-02-05 10:40:00,21.1,21.1,28.69,SW,219,5.0,8.0,100,0.00,,,0.00,VWS V14.01,2013-02-05 16:40:00,
2013-02-05 10:45:00,21.4,21.4,28.68,SW,216,7.0,13.0,100,0.00,,,0.00,VWS V14.01,2013-02-05 16:45:00,
2013-02-05 10:50:00,21.6,21.6,28.69,SSW,213,4.0,5.0,100,0.00,,,0.00,VWS V14.01,2013-02-05 16:50:00,
2013-02-05 10:55:00,21.9,21.9,28.68,SSW,196,2.0,11.0,100,0.00,,,0.00,VWS V14.01,2013-02-05 16:55:00,
2013-02-05 11:00:00,22.0,22.0,28.69,SSW,197,7.0,9.0,100,0.00,,,0.00,VWS V14.01,2013-02-05 17:00:00,
2013-02-05 11:05:00,22.2,22.2,28.69,South,186,7.0,9.0,100,0.00,,,0.00,VWS V14.01,2013-02-05 17:05:00,
2013-02-05 11:10:00,22.5,22.5,28.68,SW,221,4.0,4.0,100,0.00,,,0.00,VWS V14.01,2013-02-05 17:10:00,
2013-02-05 11:15:00,22.8,22.8,28.68,SSW,198,5.0,9.0,100,0.00,,,0.00,VWS V14.01,2013-02-05 17:15:00,
2013-02-05 11:20:00,23.2,23.2,28.68,SSW,198,5.0,5.0,100,0.00,,,0.00,VWS V14.01,2013-02-05 17:20:00,
2013-02-05 11:25:00,23.7,23.7,28.68,SW,214,5.0,11.0,100,0.00,,,0.00,VWS V14.01,2013-02-05 17:25:00,
2013-02-05 11:30:00,24.2,24.2,28.69,SW,226,5.0,5.0,100,0.00,,,0.00,VWS V14.01,2013-02-05 17:30:00,
2013-02-05 11:35:00,24.7,24.7,28.68,SW,233,5.0,7.0,100,0.00,,,0.00,VWS V14.01,2013-02-05 17:35:00,
2013-02-05 11:40:00,25.0,25.0,28.69,SW,226,2.0,4.0,100,0.00,,,0.00,VWS V14.01,2013-02-05 17:40:00,
2013-02-05 11:45:00,25.1,25.1,28.69,SSW,211,8.0,9.0,100,0.00,,,0.00,VWS V14.01,2013-02-05 17:45:00,
2013-02-05 11:50:00,25.2,25.2,28.69,SSW,212,3.0,3.0,100,0.00,,,0.00,VWS V14.01,2013-02-05 17:50:00,
2013-02-05 11:55:00,25.2,25.2,28.69,SSW,197,3.0,9.0,100,0.00,,,0.00,VWS V14.01,2013-02-05 17:55:00,
2013-02-05 12:00:00,25.3,25.3,28.69,WSW,247,1.0,2.0,100,0.00,,,0.00,VWS V14.01,2013-02-05 18:00:00,
2013-02-05 12:05:00,25.6,25.6,28.69,West,266,3.0,8.0,100,0.00,,,0.00,VWS V14.01,2013-02-05 18:05:00,
2013-02-05 12:10:00,25.9,25.9,28.69,WSW,252,2.0,2.0,100,0.00,,,0.00,VWS V14.01,2013-02-05 18:10:00,
2013-02-05 12:15:00,26.3,26.3,28.68,WSW,247,3.0,8.0,100,0.00,,,0.00,VWS V14.01,2013-02-05 18:15:00,
2013-02-05 12:20:00,26.8,26.8,28.68,SW,221,2.0,3.0,100,0.00,,,0.00,VWS V14.01,2013-02-05 18:20:00,
2013-02-05 12:25:00,27.1,27.1,28.69,West,270,8.0,10.0,100,0.00,,,0.00,VWS V14.01,2013-02-05 18:25:00,
2013-02-05 12:30:00,27.4,27.4,28.68,WSW,245,4.0,4.0,100,0.00,,,0.00,VWS V14.01,2013-02-05 18:30:00,
2013-02-05 12:35:00,27.8,27.8,28.68,West,274,3.0,9.0,100,0.00,,,0.00,VWS V14.01,2013-02-05 18:35:00,
2013-02-05 12:40:00,27.7,27.7,28.68,West,266,7.0,7.0,100,0.00,,,0.00,VWS V14.01,2013-02-05 18:40:00,
2013-02-05 12:45:00,27.3,27.3,28.69,WNW,291,7.0,12.0,100,0.00,,,0.00,VWS V14.01,2013-02-05 18:45:00,
2013-02-05 12:50:00,27.1,27.1,28.69,WSW,255,4.0,4.0,100,0.00,,,0.00,VWS V14.01,2013-02-05 18:50:00,
2013-02-05 12:55:00,27.2,27.2,28.69,NW,309,5.0,10.0,100,0.00,,,0.00,VWS V14.01,2013-02-05 18:55:00,
2013-02-05 13:00:00,27.2,27.2,28.70,WNW,288,9.0,10.0,100,0.00,,,0.00,VWS V14.01,2013-02-05 19:00:00,
2013-02-05 13:05:00,27.1,27.1,28.70,NW,309,3.0,12.0,100,0.00,,,0.00,VWS V14.01,2013-02-05 19:05:00,
2013-02-05 13:10:00,27.3,27.3,28.70,WNW,291,5.0,6.0,100,0.00,,,0.00,VWS V14.01,2013-02-05 19:10:00,
2013-02-05 13:15:00,27.2,27.2,28.70,WNW,288,9.0,13.0,100,0.00,,,0.00,VWS V14.01,2013-02-05 19:15:00,
2013-02-05 13:20:00,27.2,27.2,28.70,West,278,7.0,10.0,100,0.00,,,0.00,VWS V14.01,2013-02-05 19:20:00,
2013-02-05 13:25:00,27.3,27.3,28.70,WNW,296,8.0,11.0,100,0.00,,,0.00,VWS V14.01,2013-02-05 19:25:00,
2013-02-05 13:30:00,27.5,27.5,28.70,NNW,327,4.0,5.0,100,0.00,,,0.00,VWS V14.01,2013-02-05 19:30:00,
2013-02-05 13:35:00,27.6,27.6,28.70,WNW,291,8.0,12.0,100,0.00,,OVC018,0.00,VWS V14.01,2013-02-05 19:35:00,
2013-02-05 13:40:00,27.8,27.8,28.71,WNW,300,8.0,8.0,100,0.00,,OVC018,0.00,VWS V14.01,2013-02-05 19:40:00,
2013-02-05 13:45:00,27.8,27.8,28.71,NW,315,6.0,13.0,100,0.00,,OVC018,0.00,VWS V14.01,2013-02-05 19:45:00,
2013-02-05 13:50:00,27.9,27.9,28.71,WNW,285,6.0,8.0,100,0.00,,OVC018,0.00,VWS V14.01,2013-02-05 19:50:00,
2013-02-05 13:55:00,28.0,28.0,28.71,NW,325,7.0,13.0,100,0.00,,OVC018,0.00,VWS V14.01,2013-02-05 19:55:00,
2013-02-05 14:00:00,28.1,28.1,28.72,NW,325,6.0,8.0,100,0.00,,OVC018,0.00,VWS V14.01,2013-02-05 20:00:00,
2013-02-05 14:05:00,28.0,28.0,28.72,WNW,301,10.0,12.0,100,0.00,,OVC018,0.00,VWS V14.01,2013-02-05 20:05:00,
2013-02-05 14:10:00,28.1,28.1,28.72,NW,310,3.0,5.0,100,0.00,,OVC018,0.00,VWS V14.01,2013-02-05 20:10:00,
2013-02-05 14:15:00,28.3,28.3,28.71,West,273,5.0,8.0,100,0.00,,OVC018,0.00,VWS V14.01,2013-02-05 20:15:00,
2013-02-05 14:20:00,28.4,28.4,28.72,West,277,4.0,8.0,100,0.00,,OVC018,0.00,VWS V14.01,2013-02-05 20:20:00,
2013-02-05 14:25:00,28.5,28.5,28.72,NW,323,6.0,9.0,100,0.00,,OVC018,0.00,VWS V14.01,2013-02-05 20:25:00,
2013-02-05 14:30:00,28.5,28.5,28.72,WNW,295,5.0,9.0,100,0.00,,OVC018,0.00,VWS V14.01,2013-02-05 20:30:00,
2013-02-05 14:35:00,28.4,28.4,28.73,WNW,282,5.0,11.0,100,0.00,,OVC018,0.00,VWS V14.01,2013-02-05 20:35:00,
2013-02-05 14:40:00,28.3,28.3,28.73,NW,306,6.0,7.0,100,0.00,,OVC018,0.00,VWS V14.01,2013-02-05 20:40:00,
2013-02-05 14:45:00,28.2,28.2,28.73,WNW,297,8.0,10.0,100,0.00,,OVC018,0.00,VWS V14.01,2013-02-05 20:45:00,
2013-02-05 14:50:00,28.1,28.1,28.73,WNW,297,7.0,9.0,100,0.00,,OVC018,0.00,VWS V14.01,2013-02-05 20:50:00,
2013-02-05 14:55:00,28.2,28.2,28.74,NNW,331,4.0,10.0,100,0.00,,OVC016,0.00,VWS V14.01,2013-02-05 20:55:00,
2013-02-05 15:00:00,28.1,28.1,28.75,NW,326,8.0,8.0,100,0.00,,OVC016,0.00,VWS V14.01,2013-02-05 21:00:00,
2013-02-05 15:05:00,28.1,28.1,28.75,NW,318,8.0,10.0,100,0.00,,OVC016,0.00,VWS V14.01,2013-02-05 21:05:00,
2013-02-05 15:10:00,28.1,28.1,28.75,NW,318,7.0,7.0,100,0.00,,OVC016,0.00,VWS V14.01,2013-02-05 21:10:00,
2013-02-05 15:15:00,28.1,28.1,28.76,NW,316,11.0,12.0,100,0.00,,OVC016,0.00,VWS V14.01,2013-02-05 21:15:00,
2013-02-05 15:20:00,28.1,28.1,28.76,NW,314,3.0,5.0,100,0.00,,OVC016,0.00,VWS V14.01,2013-02-05 21:20:00,
2013-02-05 15:25:00,28.2,28.2,28.76,NW,313,4.0,9.0,100,0.00,,OVC016,0.00,VWS V14.01,2013-02-05 21:25:00,
2013-02-05 15:30:00,28.2,28.2,28.76,NNW,335,9.0,9.0,100,0.00,,OVC016,0.00,VWS V14.01,2013-02-05 21:30:00,
2013-02-05 15:35:00,28.2,28.2,28.76,NW,324,6.0,9.0,100,0.00,,OVC019,0.00,VWS V14.01,2013-02-05 21:35:00,
2013-02-05 15:40:00,28.2,28.2,28.76,WNW,291,4.0,7.0,100,0.00,,OVC019,0.00,VWS V14.01,2013-02-05 21:40:00,
2013-02-05 15:45:00,28.2,28.2,28.77,NW,325,4.0,10.0,100,0.00,,OVC019,0.00,VWS V14.01,2013-02-05 21:45:00,
2013-02-05 15:50:00,28.3,28.3,28.77,NW,323,1.0,4.0,100,0.00,,OVC019,0.00,VWS V14.01,2013-02-05 21:50:00,
2013-02-05 15:55:00,28.3,28.3,28.77,NNW,339,8.0,11.0,100,0.00,,OVC019,0.00,VWS V14.01,2013-02-05 21:55:00,
2013-02-05 16:00:00,28.3,28.3,28.78,NNW,341,5.0,6.0,100,0.00,,OVC019,0.00,VWS V14.01,2013-02-05 22:00:00,
2013-02-05 16:05:00,28.3,28.3,28.78,WNW,302,6.0,8.0,100,0.00,,OVC019,0.00,VWS V14.01,2013-02-05 22:05:00,
2013-02-05 16:10:00,28.3,28.3,28.78,NNW,330,4.0,7.0,100,0.00,,OVC019,0.00,VWS V14.01,2013-02-05 22:10:00,
2013-02-05 16:15:00,28.3,28.3,28.79,NNW,338,5.0,9.0,100,0.00,,OVC019,0.00,VWS V14.01,2013-02-05 22:15:00,
2013-02-05 16:20:00,28.3,28.3,28.79,North,349,7.0,8.0,100,0.00,,OVC019,0.00,VWS V14.01,2013-02-05 22:20:00,
2013-02-05 16:25:00,28.3,28.3,28.79,NNW,327,4.0,10.0,100,0.00,,OVC019,0.00,VWS V14.01,2013-02-05 22:25:00,
2013-02-05 16:30:00,28.3,28.3,28.79,NNW,328,7.0,10.0,100,0.00,,OVC019,0.00,VWS V14.01,2013-02-05 22:30:00,
2013-02-05 16:35:00,28.3,28.3,28.80,NNW,333,5.0,10.0,100,0.00,,OVC021,0.00,VWS V14.01,2013-02-05 22:35:00,
2013-02-05 16:40:00,28.3,28.3,28.80,NW,309,6.0,8.0,100,0.00,,OVC021,0.00,VWS V14.01,2013-02-05 22:40:00,
2013-02-05 16:45:00,28.3,28.3,28.80,NW,320,5.0,8.0,100,0.00,,OVC021,0.00,VWS V14.01,2013-02-05 22:45:00,
2013-02-05 16:50:00,28.3,28.3,28.80,North,351,4.0,4.0,100,0.00,,OVC021,0.00,VWS V14.01,2013-02-05 22:50:00,
2013-02-05 16:55:00,28.1,28.1,28.80,North,1,4.0,8.0,100,0.00,,OVC021,0.00,VWS V14.01,2013-02-05 22:55:00,
2013-02-05 17:00:00,28.1,28.1,28.81,North,0,5.0,6.0,100,0.00,,OVC021,0.00,VWS V14.01,2013-02-05 23:00:00,
2013-02-05 17:05:00,28.1,28.1,28.81,NNW,342,2.0,7.0,100,0.00,,OVC021,0.00,VWS V14.01,2013-02-05 23:05:00,
2013-02-05 17:10:00,28.1,28.1,28.82,NW,308,8.0,9.0,100,0.00,,OVC021,0.00,VWS V14.01,2013-02-05 23:10:00,
2013-02-05 17:15:00,28.1,28.1,28.82,NNW,334,7.0,12.0,100,0.00,,OVC021,0.00,VWS V14.01,2013-02-05 23:15:00,
2013-02-05 17:20:00,28.1,28.1,28.83,NW,321,7.0,9.0,100,0.00,,OVC021,0.00,VWS V14.01,2013-02-05 23:20:00,
2013-02-05 17:25:00,28.1,28.1,28.83,North,2,9.0,12.0,100,0.00,,OVC021,0.00,VWS V14.01,2013-02-05 23:25:00,
2013-02-05 17:30:00,28.1,28.1,28.83,North,351,10.0,10.0,100,0.00,,OVC021,0.00,VWS V14.01,2013-02-05 23:30:00,
2013-02-05 17:35:00,28.1,28.1,28.83,NW,314,9.0,11.0,100,0.00,,OVC021,0.00,VWS V14.01,2013-02-05 23:35:00,
2013-02-05 17:40:00,28.1,28.1,28.83,NNW,330,8.0,10.0,100,0.00,,OVC021,0.00,VWS V14.01,2013-02-05 23:40:00,
2013-02-05 17:45:00,28.0,28.0,28.84,WNW,298,13.0,13.0,100,0.00,,OVC021,0.00,VWS V14.01,2013-02-05 23:45:00,
2013-02-05 17:50:00,28.0,28.0,28.84,NNW,329,10.0,10.0,100,0.00,,OVC021,0.00,VWS V14.01,2013-02-05 23:50:00,
2013-02-05 17:55:00,27.9,27.9,28.84,WNW,297,6.0,12.0,100,0.00,,OVC021,0.00,VWS V14.01,2013-02-05 23:55:00,
2013-02-05 18:00:00,27.9,27.9,28.85,NNW,339,5.0,7.0,100,0.00,,OVC021,0.00,VWS V14.01,2013-02-06 00:00:00,
2013-02-05 18:05:00,27.9,27.9,28.85,North,7,6.0,9.0,100,0.00,,OVC021,0.00,VWS V14.01,2013-02-06 00:05:00,
2013-02-05 18:10:00,27.9,27.9,28.85,NNE,13,5.0,8.0,100,0.00,,OVC021,0.00,VWS V14.01,2013-02-06 00:10:00,
2013-02-05 18:15:00,27.8,27.8,28.86,North,351,7.0,10.0,100,0.00,,OVC021,0.00,VWS V14.01,2013-02-06 00:15:00,
2013-02-05 18:20:00,27.7,27.7,28.86,North,352,5.0,8.0,100,0.00,,OVC021,0.00,VWS V14.01,2013-02-06 00:20:00,
2013-02-05 18:25:00,27.7,27.7,28.86,North,10,4.0,11.0,100,0.00,,OVC021,0.00,VWS V14.01,2013-02-06 00:25:00,
2013-02-05 18:30:00,27.6,27.6,28.86,NNE,19,3.0,7.0,100,0.00,,OVC021,0.00,VWS V14.01,2013-02-06 00:30:00,
2013-02-05 18:35:00,27.5,27.5,28.86,North,355,10.0,12.0,100,0.00,,OVC021,0.00,VWS V14.01,2013-02-06 00:35:00,
2013-02-05 18:40:00,27.4,27.4,28.87,North,349,6.0,7.0,100,0.00,,OVC021,0.00,VWS V14.01,2013-02-06 00:40:00,
2013-02-05 18:45:00,27.3,27.3,28.87,NNE,32,5.0,9.0,100,0.00,,OVC021,0.00,VWS V14.01,2013-02-06 00:45:00,
2013-02-05 18:50:00,27.2,27.2,28.87,NNW,335,6.0,7.0,100,0.00,,OVC021,0.00,VWS V14.01,2013-02-06 00:50:00,
2013-02-05 18:55:00,27.1,27.1,28.88,NNW,347,6.0,9.0,100,0.00,,OVC021,0.00,VWS V14.01,2013-02-06 00:55:00,
2013-02-05 19:00:00,27.1,27.1,28.88,North,357,6.0,6.0,100,0.00,,OVC021,0.00,VWS V14.01,2013-02-06 01:00:00,
2013-02-05 19:05:00,27.0,27.0,28.88,North,5,2.0,7.0,100,0.00,,OVC021,0.00,VWS V14.01,2013-02-06 01:05:00,
2013-02-05 19:10:00,26.9,26.9,28.89,North,350,6.0,7.0,100,0.00,,OVC021,0.00,VWS V14.01,2013-02-06 01:10:00,
2013-02-05 19:15:00,26.8,26.8,28.89,North,5,9.0,9.0,100,0.00,,OVC021,0.00,VWS V14.01,2013-02-06 01:15:00,
2013-02-05 19:20:00,26.8,26.8,28.90,North,3,3.0,7.0,100,0.00,,OVC021,0.00,VWS V14.01,2013-02-06 01:20:00,
2013-02-05 19:25:00,26.7,26.7,28.90,North,356,4.0,10.0,100,0.00,,OVC021,0.00,VWS V14.01,2013-02-06 01:25:00,
2013-02-05 19:30:00,26.6,26.6,28.90,North,3,8.0,10.0,100,0.00,,OVC021,0.00,VWS V14.01,2013-02-06 01:30:00,
2013-02-05 19:35:00,26.6,26.6,28.90,NNW,346,9.0,10.0,100,0.00,,OVC025,0.00,VWS V14.01,2013-02-06 01:35:00,
2013-02-05 19:40:00,26.5,26.5,28.90,North,0,7.0,7.0,100,0.00,,OVC025,0.00,VWS V14.01,2013-02-06 01:40:00,
2013-02-05 19:45:00,26.3,26.3,28.90,North,4,7.0,9.0,100,0.00,,OVC025,0.00,VWS V14.01,2013-02-06 01:45:00,
2013-02-05 19:50:00,26.2,26.2,28.90,North,358,6.0,8.0,100,0.00,,OVC025,0.00,VWS V14.01,2013-02-06 01:50:00,
2013-02-05 19:55:00,26.1,26.1,28.91,North,6,2.0,8.0,100,0.00,,OVC025,0.00,VWS V14.01,2013-02-06 01:55:00,
2013-02-05 20:00:00,26.0,26.0,28.91,North,7,9.0,9.0,100,0.00,,OVC025,0.00,VWS V14.01,2013-02-06 02:00:00,
2013-02-05 20:05:00,25.8,25.8,28.91,North,6,6.0,12.0,100,0.00,,OVC025,0.00,VWS V14.01,2013-02-06 02:05:00,
2013-02-05 20:10:00,25.7,25.7,28.91,North,2,9.0,9.0,100,0.00,,OVC025,0.00,VWS V14.01,2013-02-06 02:10:00,
2013-02-05 20:15:00,25.6,25.6,28.92,North,4,6.0,12.0,100,0.00,,OVC025,0.00,VWS V14.01,2013-02-06 02:15:00,
2013-02-05 20:20:00,25.5,25.5,28.92,North,1,5.0,6.0,100,0.00,,OVC025,0.00,VWS V14.01,2013-02-06 02:20:00,
2013-02-05 20:25:00,25.4,25.4,28.91,North,358,8.0,9.0,100,0.00,,OVC025,0.00,VWS V14.01,2013-02-06 02:25:00,
2013-02-05 20:30:00,25.2,25.2,28.92,North,2,7.0,8.0,100,0.00,,OVC025,0.00,VWS V14.01,2013-02-06 02:30:00,
2013-02-05 20:35:00,25.1,25.1,28.92,NNE,20,8.0,13.0,100,0.00,,OVC027,0.00,VWS V14.01,2013-02-06 02:35:00,
2013-02-05 20:40:00,25.0,25.0,28.92,North,5,7.0,9.0,100,0.00,,OVC027,0.00,VWS V14.01,2013-02-06 02:40:00,
2013-02-05 20:45:00,24.8,24.8,28.92,North,6,8.0,10.0,100,0.00,,OVC027,0.00,VWS V14.01,2013-02-06 02:45:00,
2013-02-05 20:50:00,24.7,24.7,28.93,North,3,3.0,9.0,100,0.00,,OVC027,0.00,VWS V14.01,2013-02-06 02:50:00,
2013-02-05 20:55:00,24.7,24.7,28.93,North,10,7.0,13.0,100,0.00,,OVC027,0.00,VWS V14.01,2013-02-06 02:55:00,
2013-02-05 21:00:00,24.8,24.8,28.94,North,0,4.0,6.0,100,0.00,,OVC027,0.00,VWS V14.01,2013-02-06 03:00:00,
2013-02-05 21:05:00,24.8,24.8,28.94,North,356,5.0,9.0,100,0.00,,OVC027,0.00,VWS V14.01,2013-02-06 03:05:00,
2013-02-05 21:10:00,24.7,24.7,28.94,North,2,6.0,6.0,100,0.00,,OVC027,0.00,VWS V14.01,2013-02-06 03:10:00,
2013-02-05 21:15:00,24.6,24.6,28.94,North,2,5.0,7.0,100,0.00,,OVC027,0.00,VWS V14.01,2013-02-06 03:15:00,
2013-02-05 21:20:00,24.5,24.5,28.94,North,2,8.0,8.0,100,0.00,,OVC027,0.00,VWS V14.01,2013-02-06 03:20:00,
2013-02-05 21:25:00,24.4,24.4,28.94,North,0,4.0,10.0,100,0.00,,OVC027,0.00,VWS V14.01,2013-02-06 03:25:00,
2013-02-05 21:30:00,24.3,24.3,28.94,North,3,4.0,7.0,100,0.00,,OVC027,0.00,VWS V14.01,2013-02-06 03:30:00,
2013-02-05 21:35:00,24.2,24.2,28.95,North,11,3.0,8.0,100,0.00,,OVC027,0.00,VWS V14.01,2013-02-06 03:35:00,
2013-02-05 21:40:00,24.2,24.2,28.95,NNE,20,6.0,8.0,100,0.00,,OVC027,0.00,VWS V14.01,2013-02-06 03:40:00,
2013-02-05 21:45:00,24.1,24.1,28.95,NNE,12,4.0,10.0,100,0.00,,OVC027,0.00,VWS V14.01,2013-02-06 03:45:00,
2013-02-05 21:50:00,24.0,24.0,28.95,North,356,5.0,5.0,100,0.00,,OVC027,0.00,VWS V14.01,2013-02-06 03:50:00,
2013-02-05 21:55:00,23.8,23.8,28.96,North,10,6.0,12.0,100,0.00,,OVC027,0.00,VWS V14.01,2013-02-06 03:55:00,
2013-02-05 22:00:00,23.6,23.6,28.96,NNW,348,8.0,11.0,100,0.00,,OVC027,0.00,VWS V14.01,2013-02-06 04:00:00,
2013-02-05 22:05:00,23.5,23.5,28.96,North,10,5.0,11.0,100,0.00,,OVC027,0.00,VWS V14.01,2013-02-06 04:05:00,
2013-02-05 22:10:00,23.3,23.3,28.97,North,5,6.0,8.0,100,0.00,,OVC027,0.00,VWS V14.01,2013-02-06 04:10:00,
2013-02-05 22:15:00,23.2,23.2,28.97,North,1,5.0,9.0,100,0.00,,OVC027,0.00,VWS V14.01,2013-02-06 04:15:00,
2013-02-05 22:20:00,22.9,22.9,28.97,North,2,5.0,6.0,100,0.00,,OVC027,0.00,VWS V14.01,2013-02-06 04:20:00,
2013-02-05 22:25:00,22.7,22.7,28.97,North,2,6.0,8.0,100,0.00,,OVC027,0.00,VWS V14.01,2013-02-06 04:25:00,
2013-02-05 22:30:00,22.6,22.6,28.97,North,0,6.0,6.0,100,0.00,,OVC027,0.00,VWS V14.01,2013-02-06 04:30:00,
2013-02-05 22:35:00,22.4,22.4,28.98,North,2,4.0,7.0,100,0.00,,OVC027,0.00,VWS V14.01,2013-02-06 04:35:00,
2013-02-05 22:40:00,22.1,22.1,28.98,North,0,4.0,4.0,100,0.00,,OVC027,0.00,VWS V14.01,2013-02-06 04:40:00,
2013-02-05 22:45:00,21.9,21.9,28.98,North,6,5.0,7.0,100,0.00,,OVC027,0.00,VWS V14.01,2013-02-06 04:45:00,
2013-02-05 22:50:00,21.7,21.7,28.98,North,4,2.0,3.0,100,0.00,,OVC027,0.00,VWS V14.01,2013-02-06 04:50:00,
2013-02-05 22:55:00,21.6,21.6,28.98,North,1,4.0,5.0,100,0.00,,OVC027,0.00,VWS V14.01,2013-02-06 04:55:00,
2013-02-05 23:00:00,21.4,21.4,28.98,North,0,4.0,6.0,100,0.00,,OVC027,0.00,VWS V14.01,2013-02-06 05:00:00,
2013-02-05 23:05:00,21.3,21.3,28.98,North,0,5.0,6.0,100,0.00,,OVC027,0.00,VWS V14.01,2013-02-06 05:05:00,
2013-02-05 23:10:00,21.1,21.1,28.98,North,0,4.0,6.0,100,0.00,,OVC027,0.00,VWS V14.01,2013-02-06 05:10:00,
2013-02-05 23:15:00,21.0,21.0,28.98,North,0,4.0,8.0,100,0.00,,OVC027,0.00,VWS V14.01,2013-02-06 05:15:00,
2013-02-05 23:20:00,20.9,20.9,28.97,North,0,3.0,5.0,100,0.00,,OVC027,0.00,VWS V14.01,2013-02-06 05:20:00,
2013-02-05 23:25:00,20.7,20.7,28.98,North,0,3.0,5.0,100,0.00,,OVC027,0.00,VWS V14.01,2013-02-06 05:25:00,
2013-02-05 23:30:00,20.5,20.5,28.99,North,0,4.0,4.0,100,0.00,,OVC027,0.00,VWS V14.01,2013-02-06 05:30:00,
2013-02-05 23:35:00,20.3,20.3,28.99,North,0,2.0,4.0,100,0.00,,SCT027,0.00,VWS V14.01,2013-02-06 05:35:00,
2013-02-05 23:40:00,20.3,20.3,29.00,North,0,2.0,2.0,100,0.00,,SCT027,0.00,VWS V14.01,2013-02-06 05:40:00,
2013-02-05 23:45:00,20.2,20.2,29.00,North,0,2.0,4.0,100,0.00,,SCT027,0.00,VWS V14.01,2013-02-06 05:45:00,
2013-02-05 23:50:00,20.2,20.2,29.00,North,0,1.0,3.0,100,0.00,,SCT027,0.00,VWS V14.01,2013-02-06 05:50:00,
2013-02-05 23:55:00,20.0,20.0,29.00,North,0,2.0,3.0,100,0.00,,SCT027,0.00,VWS V14.01,2013-02-06 05:55:00,